sensor_id;sensor_type;location;lat;lon;timestamp;P1;durP1;ratioP1;P2;durP2;ratioP2
11506;SDS011;5810;51.180;6.646;2023-06-19T00:00:31;1.75;;;1.55;;
11506;SDS011;5810;51.180;6.646;2023-06-19T00:02:57;1.45;;;1.33;;
11506;SDS011;5810;51.180;6.646;2023-06-19T00:05:23;1.58;;;1.48;;
11506;SDS011;5810;51.180;6.646;2023-06-19T00:07:50;1.70;;;1.55;;
11506;SDS011;5810;51.180;6.646;2023-06-19T00:10:16;1.77;;;1.67;;
11506;SDS011;5810;51.180;6.646;2023-06-19T00:12:42;1.52;;;1.42;;
11506;SDS011;5810;51.180;6.646;2023-06-19T00:15:08;3.20;;;1.77;;
11506;SDS011;5810;51.180;6.646;2023-06-19T00:17:35;1.42;;;1.33;;
11506;SDS011;5810;51.180;6.646;2023-06-19T00:20:04;2.20;;;1.77;;
11506;SDS011;5810;51.180;6.646;2023-06-19T00:22:31;1.60;;;1.50;;
11506;SDS011;5810;51.180;6.646;2023-06-19T00:24:57;1.02;;;1.02;;
11506;SDS011;5810;51.180;6.646;2023-06-19T00:27:23;1.73;;;1.60;;
11506;SDS011;5810;51.180;6.646;2023-06-19T00:29:50;1.45;;;1.35;;
11506;SDS011;5810;51.180;6.646;2023-06-19T00:32:16;2.22;;;2.03;;
11506;SDS011;5810;51.180;6.646;2023-06-19T00:34:42;1.42;;;1.33;;
11506;SDS011;5810;51.180;6.646;2023-06-19T00:37:08;1.63;;;1.52;;
11506;SDS011;5810;51.180;6.646;2023-06-19T00:39:38;1.38;;;1.27;;
11506;SDS011;5810;51.180;6.646;2023-06-19T00:42:04;2.83;;;1.42;;
11506;SDS011;5810;51.180;6.646;2023-06-19T00:44:30;1.40;;;1.10;;
11506;SDS011;5810;51.180;6.646;2023-06-19T00:47:01;1.38;;;1.38;;
11506;SDS011;5810;51.180;6.646;2023-06-19T00:49:28;1.17;;;1.08;;
11506;SDS011;5810;51.180;6.646;2023-06-19T00:51:54;1.33;;;1.23;;
11506;SDS011;5810;51.180;6.646;2023-06-19T00:54:20;1.50;;;1.40;;
11506;SDS011;5810;51.180;6.646;2023-06-19T00:56:46;2.28;;;1.95;;
11506;SDS011;5810;51.180;6.646;2023-06-19T00:59:17;1.73;;;1.63;;
11506;SDS011;5810;51.180;6.646;2023-06-19T01:01:43;1.73;;;1.63;;
11506;SDS011;5810;51.180;6.646;2023-06-19T01:04:09;1.55;;;1.30;;
11506;SDS011;5810;51.180;6.646;2023-06-19T01:06:40;1.77;;;1.67;;
11506;SDS011;5810;51.180;6.646;2023-06-19T01:09:08;1.55;;;1.45;;
11506;SDS011;5810;51.180;6.646;2023-06-19T01:11:36;1.05;;;1.05;;
11506;SDS011;5810;51.180;6.646;2023-06-19T01:14:06;1.25;;;1.20;;
11506;SDS011;5810;51.180;6.646;2023-06-19T01:16:34;2.20;;;2.00;;
11506;SDS011;5810;51.180;6.646;2023-06-19T01:19:00;1.45;;;1.42;;
11506;SDS011;5810;51.180;6.646;2023-06-19T01:21:26;1.48;;;1.38;;
11506;SDS011;5810;51.180;6.646;2023-06-19T01:23:52;1.60;;;1.48;;
11506;SDS011;5810;51.180;6.646;2023-06-19T01:26:19;1.85;;;1.42;;
11506;SDS011;5810;51.180;6.646;2023-06-19T01:28:45;1.27;;;1.10;;
11506;SDS011;5810;51.180;6.646;2023-06-19T01:31:23;1.50;;;1.40;;
11506;SDS011;5810;51.180;6.646;2023-06-19T01:33:51;2.05;;;1.60;;
11506;SDS011;5810;51.180;6.646;2023-06-19T01:36:17;1.05;;;1.02;;
11506;SDS011;5810;51.180;6.646;2023-06-19T01:38:44;3.53;;;1.65;;
11506;SDS011;5810;51.180;6.646;2023-06-19T01:41:11;1.73;;;1.63;;
11506;SDS011;5810;51.180;6.646;2023-06-19T01:43:37;1.73;;;1.30;;
11506;SDS011;5810;51.180;6.646;2023-06-19T01:46:03;1.60;;;1.50;;
11506;SDS011;5810;51.180;6.646;2023-06-19T01:48:30;1.40;;;1.25;;
11506;SDS011;5810;51.180;6.646;2023-06-19T01:50:56;1.27;;;1.23;;
11506;SDS011;5810;51.180;6.646;2023-06-19T01:53:22;1.73;;;1.50;;
11506;SDS011;5810;51.180;6.646;2023-06-19T01:55:48;0.98;;;0.95;;
11506;SDS011;5810;51.180;6.646;2023-06-19T01:58:14;1.58;;;1.48;;
11506;SDS011;5810;51.180;6.646;2023-06-19T02:00:40;1.70;;;1.60;;
11506;SDS011;5810;51.180;6.646;2023-06-19T02:03:06;1.55;;;1.45;;
11506;SDS011;5810;51.180;6.646;2023-06-19T02:05:32;3.25;;;2.00;;
11506;SDS011;5810;51.180;6.646;2023-06-19T02:07:59;1.02;;;1.00;;
11506;SDS011;5810;51.180;6.646;2023-06-19T02:10:25;2.25;;;1.42;;
11506;SDS011;5810;51.180;6.646;2023-06-19T02:12:51;1.65;;;1.55;;
11506;SDS011;5810;51.180;6.646;2023-06-19T02:15:17;2.05;;;1.67;;
11506;SDS011;5810;51.180;6.646;2023-06-19T02:17:43;2.15;;;1.95;;
11506;SDS011;5810;51.180;6.646;2023-06-19T02:20:09;2.03;;;1.83;;
11506;SDS011;5810;51.180;6.646;2023-06-19T02:22:39;1.20;;;1.02;;
11506;SDS011;5810;51.180;6.646;2023-06-19T02:25:06;3.80;;;1.63;;
11506;SDS011;5810;51.180;6.646;2023-06-19T02:27:32;1.42;;;1.33;;
11506;SDS011;5810;51.180;6.646;2023-06-19T02:29:58;1.13;;;1.13;;
11506;SDS011;5810;51.180;6.646;2023-06-19T02:32:24;1.25;;;1.15;;
11506;SDS011;5810;51.180;6.646;2023-06-19T02:34:50;1.92;;;1.40;;
11506;SDS011;5810;51.180;6.646;2023-06-19T02:37:16;1.33;;;1.25;;
11506;SDS011;5810;51.180;6.646;2023-06-19T02:39:42;1.10;;;1.10;;
11506;SDS011;5810;51.180;6.646;2023-06-19T02:42:08;1.10;;;1.10;;
11506;SDS011;5810;51.180;6.646;2023-06-19T02:44:34;1.08;;;1.05;;
11506;SDS011;5810;51.180;6.646;2023-06-19T02:47:00;1.00;;;1.00;;
11506;SDS011;5810;51.180;6.646;2023-06-19T02:49:26;0.98;;;0.98;;
11506;SDS011;5810;51.180;6.646;2023-06-19T02:51:52;0.90;;;0.90;;
11506;SDS011;5810;51.180;6.646;2023-06-19T02:54:18;0.93;;;0.93;;
11506;SDS011;5810;51.180;6.646;2023-06-19T02:56:44;1.23;;;1.13;;
11506;SDS011;5810;51.180;6.646;2023-06-19T02:59:10;0.95;;;0.95;;
11506;SDS011;5810;51.180;6.646;2023-06-19T03:01:36;1.70;;;1.25;;
11506;SDS011;5810;51.180;6.646;2023-06-19T03:04:02;1.95;;;1.50;;
11506;SDS011;5810;51.180;6.646;2023-06-19T03:06:28;0.93;;;0.93;;
11506;SDS011;5810;51.180;6.646;2023-06-19T03:08:54;3.80;;;1.35;;
11506;SDS011;5810;51.180;6.646;2023-06-19T03:11:20;0.98;;;0.98;;
11506;SDS011;5810;51.180;6.646;2023-06-19T03:13:53;1.40;;;1.33;;
11506;SDS011;5810;51.180;6.646;2023-06-19T03:16:20;0.80;;;0.80;;
11506;SDS011;5810;51.180;6.646;2023-06-19T03:18:46;0.88;;;0.88;;
11506;SDS011;5810;51.180;6.646;2023-06-19T03:21:12;1.60;;;1.50;;
11506;SDS011;5810;51.180;6.646;2023-06-19T03:23:39;2.20;;;1.33;;
11506;SDS011;5810;51.180;6.646;2023-06-19T03:26:08;4.57;;;1.42;;
11506;SDS011;5810;51.180;6.646;2023-06-19T03:28:35;0.80;;;0.80;;
11506;SDS011;5810;51.180;6.646;2023-06-19T03:31:01;0.95;;;0.95;;
11506;SDS011;5810;51.180;6.646;2023-06-19T03:33:27;1.25;;;1.15;;
11506;SDS011;5810;51.180;6.646;2023-06-19T03:35:53;0.80;;;0.80;;
11506;SDS011;5810;51.180;6.646;2023-06-19T03:38:19;1.38;;;1.27;;
11506;SDS011;5810;51.180;6.646;2023-06-19T03:40:45;1.08;;;1.08;;
11506;SDS011;5810;51.180;6.646;2023-06-19T03:43:11;1.20;;;1.10;;
11506;SDS011;5810;51.180;6.646;2023-06-19T03:45:37;1.10;;;1.10;;
11506;SDS011;5810;51.180;6.646;2023-06-19T03:48:03;1.77;;;1.67;;
11506;SDS011;5810;51.180;6.646;2023-06-19T03:50:29;0.68;;;0.68;;
11506;SDS011;5810;51.180;6.646;2023-06-19T03:52:55;1.23;;;0.80;;
11506;SDS011;5810;51.180;6.646;2023-06-19T03:55:21;1.00;;;0.90;;
11506;SDS011;5810;51.180;6.646;2023-06-19T03:57:47;0.60;;;0.60;;
11506;SDS011;5810;51.180;6.646;2023-06-19T04:00:13;1.05;;;0.75;;
11506;SDS011;5810;51.180;6.646;2023-06-19T04:02:40;1.33;;;0.85;;
11506;SDS011;5810;51.180;6.646;2023-06-19T04:05:07;0.95;;;0.90;;
11506;SDS011;5810;51.180;6.646;2023-06-19T04:07:33;0.75;;;0.75;;
11506;SDS011;5810;51.180;6.646;2023-06-19T04:09:59;1.05;;;0.93;;
11506;SDS011;5810;51.180;6.646;2023-06-19T04:12:25;1.60;;;1.10;;
11506;SDS011;5810;51.180;6.646;2023-06-19T04:14:51;0.75;;;0.75;;
11506;SDS011;5810;51.180;6.646;2023-06-19T04:17:17;0.73;;;0.73;;
11506;SDS011;5810;51.180;6.646;2023-06-19T04:19:43;0.77;;;0.77;;
11506;SDS011;5810;51.180;6.646;2023-06-19T04:22:09;1.70;;;0.68;;
11506;SDS011;5810;51.180;6.646;2023-06-19T04:24:35;0.70;;;0.70;;
11506;SDS011;5810;51.180;6.646;2023-06-19T04:27:01;1.10;;;1.00;;
11506;SDS011;5810;51.180;6.646;2023-06-19T04:29:27;0.55;;;0.55;;
11506;SDS011;5810;51.180;6.646;2023-06-19T04:31:56;1.27;;;1.05;;
11506;SDS011;5810;51.180;6.646;2023-06-19T04:34:22;0.80;;;0.80;;
11506;SDS011;5810;51.180;6.646;2023-06-19T04:36:48;0.70;;;0.70;;
11506;SDS011;5810;51.180;6.646;2023-06-19T04:39:14;1.25;;;1.08;;
11506;SDS011;5810;51.180;6.646;2023-06-19T04:41:43;0.80;;;0.80;;
11506;SDS011;5810;51.180;6.646;2023-06-19T04:44:10;1.90;;;0.85;;
11506;SDS011;5810;51.180;6.646;2023-06-19T04:46:40;0.68;;;0.68;;
11506;SDS011;5810;51.180;6.646;2023-06-19T04:49:06;0.68;;;0.68;;
11506;SDS011;5810;51.180;6.646;2023-06-19T04:51:33;1.15;;;1.05;;
11506;SDS011;5810;51.180;6.646;2023-06-19T04:53:59;0.80;;;0.80;;
11506;SDS011;5810;51.180;6.646;2023-06-19T04:56:25;0.70;;;0.70;;
11506;SDS011;5810;51.180;6.646;2023-06-19T04:58:51;2.17;;;1.00;;
11506;SDS011;5810;51.180;6.646;2023-06-19T05:01:21;0.70;;;0.70;;
11506;SDS011;5810;51.180;6.646;2023-06-19T05:03:52;0.80;;;0.80;;
11506;SDS011;5810;51.180;6.646;2023-06-19T05:06:18;1.08;;;0.80;;
11506;SDS011;5810;51.180;6.646;2023-06-19T05:08:44;0.77;;;0.77;;
11506;SDS011;5810;51.180;6.646;2023-06-19T05:11:10;3.47;;;0.88;;
11506;SDS011;5810;51.180;6.646;2023-06-19T05:13:36;0.68;;;0.68;;
11506;SDS011;5810;51.180;6.646;2023-06-19T05:16:02;0.70;;;0.70;;
11506;SDS011;5810;51.180;6.646;2023-06-19T05:18:28;0.40;;;0.40;;
11506;SDS011;5810;51.180;6.646;2023-06-19T05:20:54;1.13;;;1.05;;
11506;SDS011;5810;51.180;6.646;2023-06-19T05:23:20;0.63;;;0.63;;
11506;SDS011;5810;51.180;6.646;2023-06-19T05:25:46;0.77;;;0.75;;
11506;SDS011;5810;51.180;6.646;2023-06-19T05:28:12;0.70;;;0.70;;
11506;SDS011;5810;51.180;6.646;2023-06-19T05:30:38;1.17;;;0.90;;
11506;SDS011;5810;51.180;6.646;2023-06-19T05:33:04;1.50;;;1.40;;
11506;SDS011;5810;51.180;6.646;2023-06-19T05:35:30;1.35;;;1.25;;
11506;SDS011;5810;51.180;6.646;2023-06-19T05:37:57;3.85;;;0.70;;
11506;SDS011;5810;51.180;6.646;2023-06-19T05:40:23;0.70;;;0.70;;
11506;SDS011;5810;51.180;6.646;2023-06-19T05:42:49;0.73;;;0.73;;
11506;SDS011;5810;51.180;6.646;2023-06-19T05:45:15;0.50;;;0.50;;
11506;SDS011;5810;51.180;6.646;2023-06-19T05:47:41;1.52;;;0.93;;
11506;SDS011;5810;51.180;6.646;2023-06-19T05:50:07;0.60;;;0.60;;
11506;SDS011;5810;51.180;6.646;2023-06-19T05:52:33;0.82;;;0.82;;
11506;SDS011;5810;51.180;6.646;2023-06-19T05:54:59;0.60;;;0.60;;
11506;SDS011;5810;51.180;6.646;2023-06-19T05:57:25;2.90;;;0.82;;
11506;SDS011;5810;51.180;6.646;2023-06-19T05:59:51;1.00;;;0.95;;
11506;SDS011;5810;51.180;6.646;2023-06-19T06:02:18;0.77;;;0.63;;
11506;SDS011;5810;51.180;6.646;2023-06-19T06:04:44;0.57;;;0.57;;
11506;SDS011;5810;51.180;6.646;2023-06-19T06:07:10;1.17;;;1.15;;
11506;SDS011;5810;51.180;6.646;2023-06-19T06:09:36;0.90;;;0.90;;
11506;SDS011;5810;51.180;6.646;2023-06-19T06:12:03;0.50;;;0.50;;
11506;SDS011;5810;51.180;6.646;2023-06-19T06:14:29;0.60;;;0.60;;
11506;SDS011;5810;51.180;6.646;2023-06-19T06:16:55;1.00;;;1.00;;
11506;SDS011;5810;51.180;6.646;2023-06-19T06:19:21;0.90;;;0.90;;
11506;SDS011;5810;51.180;6.646;2023-06-19T06:21:50;0.75;;;0.75;;
11506;SDS011;5810;51.180;6.646;2023-06-19T06:24:16;0.80;;;0.80;;
11506;SDS011;5810;51.180;6.646;2023-06-19T06:26:43;0.70;;;0.70;;
11506;SDS011;5810;51.180;6.646;2023-06-19T06:29:09;0.63;;;0.63;;
11506;SDS011;5810;51.180;6.646;2023-06-19T06:31:37;0.75;;;0.75;;
11506;SDS011;5810;51.180;6.646;2023-06-19T06:34:04;0.82;;;0.70;;
11506;SDS011;5810;51.180;6.646;2023-06-19T06:36:30;0.50;;;0.50;;
11506;SDS011;5810;51.180;6.646;2023-06-19T06:38:56;1.05;;;1.05;;
11506;SDS011;5810;51.180;6.646;2023-06-19T06:41:22;0.80;;;0.80;;
11506;SDS011;5810;51.180;6.646;2023-06-19T06:43:48;1.23;;;1.10;;
11506;SDS011;5810;51.180;6.646;2023-06-19T06:46:14;1.83;;;0.93;;
11506;SDS011;5810;51.180;6.646;2023-06-19T06:48:40;0.70;;;0.70;;
11506;SDS011;5810;51.180;6.646;2023-06-19T06:51:06;1.02;;;1.00;;
11506;SDS011;5810;51.180;6.646;2023-06-19T06:53:34;0.73;;;0.73;;
11506;SDS011;5810;51.180;6.646;2023-06-19T06:56:00;0.60;;;0.60;;
11506;SDS011;5810;51.180;6.646;2023-06-19T06:58:26;0.93;;;0.90;;
11506;SDS011;5810;51.180;6.646;2023-06-19T07:00:52;0.80;;;0.80;;
11506;SDS011;5810;51.180;6.646;2023-06-19T07:03:18;1.17;;;1.15;;
11506;SDS011;5810;51.180;6.646;2023-06-19T07:05:44;0.60;;;0.60;;
11506;SDS011;5810;51.180;6.646;2023-06-19T07:08:10;1.63;;;1.42;;
11506;SDS011;5810;51.180;6.646;2023-06-19T07:10:37;0.82;;;0.82;;
11506;SDS011;5810;51.180;6.646;2023-06-19T07:13:03;0.70;;;0.70;;
11506;SDS011;5810;51.180;6.646;2023-06-19T07:15:29;0.60;;;0.60;;
11506;SDS011;5810;51.180;6.646;2023-06-19T07:17:55;0.63;;;0.63;;
11506;SDS011;5810;51.180;6.646;2023-06-19T07:20:21;0.73;;;0.73;;
11506;SDS011;5810;51.180;6.646;2023-06-19T07:22:49;0.70;;;0.65;;
11506;SDS011;5810;51.180;6.646;2023-06-19T07:25:16;0.65;;;0.65;;
11506;SDS011;5810;51.180;6.646;2023-06-19T07:27:42;0.85;;;0.85;;
11506;SDS011;5810;51.180;6.646;2023-06-19T07:30:08;0.77;;;0.77;;
11506;SDS011;5810;51.180;6.646;2023-06-19T07:32:35;0.80;;;0.80;;
11506;SDS011;5810;51.180;6.646;2023-06-19T07:35:01;0.60;;;0.60;;
11506;SDS011;5810;51.180;6.646;2023-06-19T07:37:27;0.75;;;0.60;;
11506;SDS011;5810;51.180;6.646;2023-06-19T07:39:53;1.10;;;0.93;;
11506;SDS011;5810;51.180;6.646;2023-06-19T07:42:20;0.80;;;0.65;;
11506;SDS011;5810;51.180;6.646;2023-06-19T07:44:46;0.60;;;0.60;;
11506;SDS011;5810;51.180;6.646;2023-06-19T07:47:12;0.60;;;0.60;;
11506;SDS011;5810;51.180;6.646;2023-06-19T07:49:38;0.75;;;0.75;;
11506;SDS011;5810;51.180;6.646;2023-06-19T07:52:04;1.00;;;1.00;;
11506;SDS011;5810;51.180;6.646;2023-06-19T07:54:30;0.68;;;0.68;;
11506;SDS011;5810;51.180;6.646;2023-06-19T07:56:56;0.80;;;0.80;;
11506;SDS011;5810;51.180;6.646;2023-06-19T07:59:22;0.63;;;0.63;;
11506;SDS011;5810;51.180;6.646;2023-06-19T08:01:49;1.02;;;0.93;;
11506;SDS011;5810;51.180;6.646;2023-06-19T08:04:15;0.77;;;0.77;;
11506;SDS011;5810;51.180;6.646;2023-06-19T08:06:41;1.00;;;0.95;;
11506;SDS011;5810;51.180;6.646;2023-06-19T08:09:06;0.98;;;0.98;;
11506;SDS011;5810;51.180;6.646;2023-06-19T08:11:33;0.60;;;0.60;;
11506;SDS011;5810;51.180;6.646;2023-06-19T08:13:59;0.60;;;0.60;;
11506;SDS011;5810;51.180;6.646;2023-06-19T08:16:25;1.35;;;1.10;;
11506;SDS011;5810;51.180;6.646;2023-06-19T08:18:51;0.70;;;0.70;;
11506;SDS011;5810;51.180;6.646;2023-06-19T08:21:18;0.73;;;0.73;;
11506;SDS011;5810;51.180;6.646;2023-06-19T08:23:46;0.70;;;0.70;;
11506;SDS011;5810;51.180;6.646;2023-06-19T08:26:12;0.82;;;0.80;;
11506;SDS011;5810;51.180;6.646;2023-06-19T08:28:38;0.63;;;0.63;;
11506;SDS011;5810;51.180;6.646;2023-06-19T08:31:06;0.93;;;0.93;;
11506;SDS011;5810;51.180;6.646;2023-06-19T08:33:34;1.10;;;1.10;;
11506;SDS011;5810;51.180;6.646;2023-06-19T08:36:00;0.65;;;0.65;;
11506;SDS011;5810;51.180;6.646;2023-06-19T08:38:26;0.70;;;0.70;;
11506;SDS011;5810;51.180;6.646;2023-06-19T08:40:52;0.80;;;0.80;;
11506;SDS011;5810;51.180;6.646;2023-06-19T08:43:20;0.98;;;0.98;;
11506;SDS011;5810;51.180;6.646;2023-06-19T08:48:30;0.85;;;0.85;;
11506;SDS011;5810;51.180;6.646;2023-06-19T08:50:56;4.10;;;1.25;;
11506;SDS011;5810;51.180;6.646;2023-06-19T08:53:22;0.98;;;0.98;;
11506;SDS011;5810;51.180;6.646;2023-06-19T08:55:48;0.82;;;0.82;;
11506;SDS011;5810;51.180;6.646;2023-06-19T08:58:21;1.05;;;0.80;;
11506;SDS011;5810;51.180;6.646;2023-06-19T09:00:47;7.97;;;1.27;;
11506;SDS011;5810;51.180;6.646;2023-06-19T09:03:19;4.30;;;1.60;;
11506;SDS011;5810;51.180;6.646;2023-06-19T09:05:45;0.90;;;0.90;;
11506;SDS011;5810;51.180;6.646;2023-06-19T09:08:14;1.52;;;1.25;;
11506;SDS011;5810;51.180;6.646;2023-06-19T09:10:41;1.15;;;1.02;;
11506;SDS011;5810;51.180;6.646;2023-06-19T09:13:07;0.85;;;0.85;;
11506;SDS011;5810;51.180;6.646;2023-06-19T09:15:37;0.90;;;0.90;;
11506;SDS011;5810;51.180;6.646;2023-06-19T09:18:10;1.50;;;1.30;;
11506;SDS011;5810;51.180;6.646;2023-06-19T09:20:38;0.98;;;0.95;;
11506;SDS011;5810;51.180;6.646;2023-06-19T09:23:06;2.03;;;1.27;;
11506;SDS011;5810;51.180;6.646;2023-06-19T09:25:42;1.42;;;1.33;;
11506;SDS011;5810;51.180;6.646;2023-06-19T09:28:16;2.00;;;1.25;;
11506;SDS011;5810;51.180;6.646;2023-06-19T09:30:51;0.90;;;0.90;;
11506;SDS011;5810;51.180;6.646;2023-06-19T09:33:17;1.15;;;1.15;;
11506;SDS011;5810;51.180;6.646;2023-06-19T09:35:43;1.83;;;1.65;;
11506;SDS011;5810;51.180;6.646;2023-06-19T09:38:08;1.40;;;1.30;;
11506;SDS011;5810;51.180;6.646;2023-06-19T09:40:35;2.80;;;1.30;;
11506;SDS011;5810;51.180;6.646;2023-06-19T09:43:01;2.50;;;1.52;;
11506;SDS011;5810;51.180;6.646;2023-06-19T09:45:28;1.58;;;1.33;;
11506;SDS011;5810;51.180;6.646;2023-06-19T09:47:55;1.45;;;1.25;;
11506;SDS011;5810;51.180;6.646;2023-06-19T09:50:22;1.25;;;1.15;;
11506;SDS011;5810;51.180;6.646;2023-06-19T09:52:52;1.02;;;1.00;;
11506;SDS011;5810;51.180;6.646;2023-06-19T09:55:18;1.50;;;1.40;;
11506;SDS011;5810;51.180;6.646;2023-06-19T09:57:45;1.38;;;1.27;;
11506;SDS011;5810;51.180;6.646;2023-06-19T10:00:11;1.85;;;1.40;;
11506;SDS011;5810;51.180;6.646;2023-06-19T10:02:40;8.20;;;1.83;;
11506;SDS011;5810;51.180;6.646;2023-06-19T10:05:07;1.20;;;1.10;;
11506;SDS011;5810;51.180;6.646;2023-06-19T10:07:41;2.53;;;1.25;;
11506;SDS011;5810;51.180;6.646;2023-06-19T10:10:08;1.48;;;1.38;;
11506;SDS011;5810;51.180;6.646;2023-06-19T10:17:36;1.50;;;1.33;;
11506;SDS011;5810;51.180;6.646;2023-06-19T10:20:02;1.70;;;1.48;;
11506;SDS011;5810;51.180;6.646;2023-06-19T10:22:31;1.27;;;1.17;;
11506;SDS011;5810;51.180;6.646;2023-06-19T10:24:57;1.33;;;1.23;;
11506;SDS011;5810;51.180;6.646;2023-06-19T10:27:24;1.45;;;1.38;;
11506;SDS011;5810;51.180;6.646;2023-06-19T10:29:54;1.33;;;1.25;;
11506;SDS011;5810;51.180;6.646;2023-06-19T10:32:22;2.42;;;1.70;;
11506;SDS011;5810;51.180;6.646;2023-06-19T10:34:48;1.80;;;1.70;;
11506;SDS011;5810;51.180;6.646;2023-06-19T10:37:15;3.22;;;1.50;;
11506;SDS011;5810;51.180;6.646;2023-06-19T10:39:41;1.98;;;1.48;;
11506;SDS011;5810;51.180;6.646;2023-06-19T10:42:08;1.85;;;1.73;;
11506;SDS011;5810;51.180;6.646;2023-06-19T10:44:34;1.02;;;1.02;;
11506;SDS011;5810;51.180;6.646;2023-06-19T10:47:02;1.20;;;1.20;;
11506;SDS011;5810;51.180;6.646;2023-06-19T10:49:27;1.35;;;1.25;;
11506;SDS011;5810;51.180;6.646;2023-06-19T10:51:53;3.00;;;2.03;;
11506;SDS011;5810;51.180;6.646;2023-06-19T10:54:24;1.52;;;1.42;;
11506;SDS011;5810;51.180;6.646;2023-06-19T10:56:50;1.60;;;1.45;;
11506;SDS011;5810;51.180;6.646;2023-06-19T10:59:16;1.75;;;1.50;;
11506;SDS011;5810;51.180;6.646;2023-06-19T11:01:47;1.60;;;1.50;;
11506;SDS011;5810;51.180;6.646;2023-06-19T11:04:14;1.90;;;1.75;;
11506;SDS011;5810;51.180;6.646;2023-06-19T11:06:41;1.27;;;1.27;;
11506;SDS011;5810;51.180;6.646;2023-06-19T11:09:08;1.95;;;1.65;;
11506;SDS011;5810;51.180;6.646;2023-06-19T11:14:07;1.45;;;1.35;;
11506;SDS011;5810;51.180;6.646;2023-06-19T11:16:34;2.00;;;1.40;;
11506;SDS011;5810;51.180;6.646;2023-06-19T11:19:00;2.08;;;1.52;;
11506;SDS011;5810;51.180;6.646;2023-06-19T11:21:33;2.42;;;1.58;;
11506;SDS011;5810;51.180;6.646;2023-06-19T11:24:03;1.70;;;1.60;;
11506;SDS011;5810;51.180;6.646;2023-06-19T11:26:34;1.85;;;1.50;;
11506;SDS011;5810;51.180;6.646;2023-06-19T11:29:01;2.30;;;1.58;;
11506;SDS011;5810;51.180;6.646;2023-06-19T11:31:28;2.60;;;1.60;;
11506;SDS011;5810;51.180;6.646;2023-06-19T11:33:58;2.65;;;1.83;;
11506;SDS011;5810;51.180;6.646;2023-06-19T11:36:24;1.65;;;1.55;;
11506;SDS011;5810;51.180;6.646;2023-06-19T11:38:51;2.22;;;1.90;;
11506;SDS011;5810;51.180;6.646;2023-06-19T11:41:24;1.70;;;1.60;;
11506;SDS011;5810;51.180;6.646;2023-06-19T11:43:51;1.80;;;1.67;;
11506;SDS011;5810;51.180;6.646;2023-06-19T11:46:27;1.35;;;1.25;;
11506;SDS011;5810;51.180;6.646;2023-06-19T11:48:54;2.13;;;1.92;;
11506;SDS011;5810;51.180;6.646;2023-06-19T11:51:21;2.75;;;1.80;;
11506;SDS011;5810;51.180;6.646;2023-06-19T11:53:47;2.90;;;2.08;;
11506;SDS011;5810;51.180;6.646;2023-06-19T11:56:13;2.08;;;1.98;;
11506;SDS011;5810;51.180;6.646;2023-06-19T11:58:39;3.08;;;1.83;;
11506;SDS011;5810;51.180;6.646;2023-06-19T12:01:05;2.50;;;1.83;;
11506;SDS011;5810;51.180;6.646;2023-06-19T12:03:31;1.55;;;1.45;;
11506;SDS011;5810;51.180;6.646;2023-06-19T12:05:57;1.95;;;1.73;;
11506;SDS011;5810;51.180;6.646;2023-06-19T12:08:23;1.70;;;1.60;;
11506;SDS011;5810;51.180;6.646;2023-06-19T12:10:49;16.90;;;2.13;;
11506;SDS011;5810;51.180;6.646;2023-06-19T12:13:15;2.40;;;2.17;;
11506;SDS011;5810;51.180;6.646;2023-06-19T12:15:41;1.45;;;1.35;;
11506;SDS011;5810;51.180;6.646;2023-06-19T12:18:07;2.63;;;1.85;;
11506;SDS011;5810;51.180;6.646;2023-06-19T12:20:33;1.95;;;1.75;;
11506;SDS011;5810;51.180;6.646;2023-06-19T12:22:59;2.28;;;1.75;;
11506;SDS011;5810;51.180;6.646;2023-06-19T12:25:25;1.75;;;1.65;;
11506;SDS011;5810;51.180;6.646;2023-06-19T12:27:51;1.65;;;1.55;;
11506;SDS011;5810;51.180;6.646;2023-06-19T12:30:17;2.58;;;1.67;;
11506;SDS011;5810;51.180;6.646;2023-06-19T12:32:43;1.92;;;1.73;;
11506;SDS011;5810;51.180;6.646;2023-06-19T12:35:09;1.70;;;1.60;;
11506;SDS011;5810;51.180;6.646;2023-06-19T12:37:35;2.08;;;1.88;;
11506;SDS011;5810;51.180;6.646;2023-06-19T12:40:01;3.65;;;1.65;;
11506;SDS011;5810;51.180;6.646;2023-06-19T12:42:32;2.67;;;1.73;;
11506;SDS011;5810;51.180;6.646;2023-06-19T12:44:58;4.05;;;1.70;;
11506;SDS011;5810;51.180;6.646;2023-06-19T12:47:24;1.63;;;1.52;;
11506;SDS011;5810;51.180;6.646;2023-06-19T12:49:50;1.90;;;1.75;;
11506;SDS011;5810;51.180;6.646;2023-06-19T12:52:16;2.30;;;1.98;;
11506;SDS011;5810;51.180;6.646;2023-06-19T12:54:42;1.80;;;1.70;;
11506;SDS011;5810;51.180;6.646;2023-06-19T12:57:08;2.63;;;1.33;;
11506;SDS011;5810;51.180;6.646;2023-06-19T12:59:34;1.85;;;1.60;;
11506;SDS011;5810;51.180;6.646;2023-06-19T13:02:00;2.55;;;1.70;;
11506;SDS011;5810;51.180;6.646;2023-06-19T13:04:26;1.45;;;1.35;;
11506;SDS011;5810;51.180;6.646;2023-06-19T13:06:52;3.00;;;1.98;;
11506;SDS011;5810;51.180;6.646;2023-06-19T13:09:18;2.65;;;2.10;;
11506;SDS011;5810;51.180;6.646;2023-06-19T13:11:44;2.75;;;1.85;;
11506;SDS011;5810;51.180;6.646;2023-06-19T13:14:10;1.58;;;1.48;;
11506;SDS011;5810;51.180;6.646;2023-06-19T13:16:36;2.10;;;1.90;;
11506;SDS011;5810;51.180;6.646;2023-06-19T13:19:02;2.33;;;1.92;;
11506;SDS011;5810;51.180;6.646;2023-06-19T13:21:28;1.80;;;1.60;;
11506;SDS011;5810;51.180;6.646;2023-06-19T13:23:55;1.65;;;1.55;;
11506;SDS011;5810;51.180;6.646;2023-06-19T13:26:21;1.80;;;1.55;;
11506;SDS011;5810;51.180;6.646;2023-06-19T13:28:47;2.30;;;1.58;;
11506;SDS011;5810;51.180;6.646;2023-06-19T13:31:13;1.95;;;1.50;;
11506;SDS011;5810;51.180;6.646;2023-06-19T13:33:39;1.63;;;1.45;;
11506;SDS011;5810;51.180;6.646;2023-06-19T13:36:05;2.10;;;1.70;;
11506;SDS011;5810;51.180;6.646;2023-06-19T13:38:31;1.77;;;1.67;;
11506;SDS011;5810;51.180;6.646;2023-06-19T13:40:57;1.95;;;1.75;;
11506;SDS011;5810;51.180;6.646;2023-06-19T13:43:23;4.93;;;2.47;;
11506;SDS011;5810;51.180;6.646;2023-06-19T13:45:49;1.58;;;1.48;;
11506;SDS011;5810;51.180;6.646;2023-06-19T13:48:15;1.65;;;1.55;;
11506;SDS011;5810;51.180;6.646;2023-06-19T13:50:41;1.83;;;1.70;;
11506;SDS011;5810;51.180;6.646;2023-06-19T13:53:07;2.03;;;1.83;;
11506;SDS011;5810;51.180;6.646;2023-06-19T13:55:33;2.30;;;1.75;;
11506;SDS011;5810;51.180;6.646;2023-06-19T13:58:00;1.50;;;1.40;;
11506;SDS011;5810;51.180;6.646;2023-06-19T14:00:26;1.70;;;1.60;;
11506;SDS011;5810;51.180;6.646;2023-06-19T14:02:52;1.67;;;1.55;;
11506;SDS011;5810;51.180;6.646;2023-06-19T14:05:19;2.65;;;1.75;;
11506;SDS011;5810;51.180;6.646;2023-06-19T14:07:45;2.20;;;1.92;;
11506;SDS011;5810;51.180;6.646;2023-06-19T14:10:11;1.50;;;1.40;;
11506;SDS011;5810;51.180;6.646;2023-06-19T14:12:37;6.75;;;1.83;;
11506;SDS011;5810;51.180;6.646;2023-06-19T14:15:05;1.73;;;1.63;;
11506;SDS011;5810;51.180;6.646;2023-06-19T14:17:32;1.42;;;1.33;;
11506;SDS011;5810;51.180;6.646;2023-06-19T14:19:58;1.30;;;1.30;;
11506;SDS011;5810;51.180;6.646;2023-06-19T14:22:24;1.50;;;1.40;;
11506;SDS011;5810;51.180;6.646;2023-06-19T14:24:50;1.58;;;1.48;;
11506;SDS011;5810;51.180;6.646;2023-06-19T14:27:18;1.40;;;1.30;;
11506;SDS011;5810;51.180;6.646;2023-06-19T14:29:44;1.60;;;1.50;;
11506;SDS011;5810;51.180;6.646;2023-06-19T14:32:10;1.67;;;1.40;;
11506;SDS011;5810;51.180;6.646;2023-06-19T14:34:37;1.30;;;1.20;;
11506;SDS011;5810;51.180;6.646;2023-06-19T14:37:03;5.40;;;1.45;;
11506;SDS011;5810;51.180;6.646;2023-06-19T14:39:29;3.90;;;1.60;;
11506;SDS011;5810;51.180;6.646;2023-06-19T14:41:55;1.60;;;1.50;;
11506;SDS011;5810;51.180;6.646;2023-06-19T14:44:21;2.88;;;1.50;;
11506;SDS011;5810;51.180;6.646;2023-06-19T14:46:47;1.67;;;1.55;;
11506;SDS011;5810;51.180;6.646;2023-06-19T14:49:13;2.55;;;1.50;;
11506;SDS011;5810;51.180;6.646;2023-06-19T14:51:39;2.78;;;1.70;;
11506;SDS011;5810;51.180;6.646;2023-06-19T14:54:05;2.25;;;1.48;;
11506;SDS011;5810;51.180;6.646;2023-06-19T14:56:31;1.70;;;1.60;;
11506;SDS011;5810;51.180;6.646;2023-06-19T14:58:57;2.00;;;1.55;;
11506;SDS011;5810;51.180;6.646;2023-06-19T15:01:23;2.47;;;1.63;;
11506;SDS011;5810;51.180;6.646;2023-06-19T15:03:49;4.82;;;1.83;;
11506;SDS011;5810;51.180;6.646;2023-06-19T15:06:15;1.52;;;1.42;;